Carmi, IL

12:02 PM CDT on July 26, 2017 (GMT -0500)
Carmi Municipal

Weather History for KCUL - February, 2013

Change the Weather History Date:

Saturday, February 16, 2013

  Actual Average (KEHR) Record (KEHR)
Temperature  
Mean Temperature 30 °F -  
Max Temperature 36 °F 47 °F 71 °F (2011)
Min Temperature 25 °F 28 °F -1 °F (1958)
Degree Days  
Heating Degree Days 34    
Moisture  
Dew Point 20 °F    
Average Humidity 69    
Maximum Humidity 92    
Minimum Humidity 41    
Precipitation  
Precipitation 0.00 in - - ()
Sea Level Pressure  
Sea Level Pressure 30.19 in    
Wind  
Wind Speed 7 mph (WNW)    
Max Wind Speed 16 mph    
Max Gust Speed 24 mph    
Visibility 10 miles    
Events      
Averages and records for this station are not official NWS values.
T = Trace of Precipitation, MM = Missing Value Source: NWS Daily Summary

Daily Weather History Graph

Daily Weather History Graph

Search for Another Location

Airport or City:

Trip Planner

Search our weather history database for the weather conditions in past years. The results will help you decide how hot, cold, wet, or windy it might be!

Date:

Astronomy

Feb. 16, 2013 Rise Set
Actual Time 6:41 AM CST 5:32 PM CST
Civil Twilight 6:14 AM CST 5:59 PM CST
Nautical Twilight 5:43 AM CST 6:30 PM CST
Astronomical Twilight 5:12 AM CST 7:00 PM CST
Moon 10:00 AM CST (2/16) No Moon Set
Length of Visible Light 11h 45m
Length of Day
10h 51m
Waxing Crescent, 39% of the Moon is Illuminated
Feb 16
Waxing Crescent
Feb 17
First Quarter
Feb 25
Full
Mar 4
Last Quarter
Mar 11
New

Hourly Weather History & Observations

Time (CST) Temp. Windchill Dew Point Humidity Pressure Visibility Wind Dir Wind Speed Gust Speed Precip Events Conditions
12:15 AM 29.1 °F 25.4 °F 26.6 °F 90% 30.19 in 10.0 mi WSW 3.5 mph - N/A   Clear
12:35 AM 28.4 °F - 26.2 °F 92% 30.18 in 10.0 mi Calm Calm - N/A   Clear
12:55 AM 28.0 °F 24.2 °F 25.7 °F 91% 30.18 in 10.0 mi West 3.5 mph - N/A   Clear
1:15 AM 28.0 °F 24.2 °F 25.0 °F 88% 30.18 in 10.0 mi West 3.5 mph - N/A   Clear
1:35 AM 27.3 °F 23.4 °F 25.2 °F 92% 30.18 in 10.0 mi West 3.5 mph - N/A   Clear
1:55 AM 27.5 °F 20.2 °F 24.8 °F 90% 30.18 in 10.0 mi WNW 6.9 mph - N/A   Clear
2:15 AM 28.9 °F 20.4 °F 23.4 °F 80% 30.18 in 10.0 mi NW 9.2 mph - N/A   Scattered Clouds
2:35 AM 29.3 °F 20.8 °F 22.6 °F 76% 30.18 in 10.0 mi NW 9.2 mph - N/A   Scattered Clouds
2:55 AM 28.8 °F 20.9 °F 22.1 °F 76% 30.17 in 10.0 mi NW 8.1 mph - N/A   Clear
3:15 AM 28.0 °F 20.8 °F 22.1 °F 78% 30.17 in 10.0 mi NW 6.9 mph - N/A   Clear
3:35 AM 27.5 °F 19.3 °F 22.1 °F 80% 30.17 in 10.0 mi NW 8.1 mph - N/A   Clear
3:55 AM 27.5 °F 18.6 °F 22.1 °F 80% 30.17 in 10.0 mi NW 9.2 mph - N/A   Scattered Clouds
4:15 AM 28.0 °F 19.3 °F 21.9 °F 78% 30.18 in 10.0 mi NW 9.2 mph - N/A   Mostly Cloudy
4:35 AM 28.0 °F 19.3 °F 21.7 °F 77% 30.18 in 10.0 mi NW 9.2 mph - N/A   Mostly Cloudy
4:55 AM 28.2 °F 19.5 °F 22.1 °F 78% 30.18 in 10.0 mi NW 9.2 mph - N/A   Overcast
5:15 AM 28.0 °F 17.0 °F 21.9 °F 78% 30.19 in 10.0 mi NW 13.8 mph - N/A   Overcast
5:35 AM 28.0 °F 17.5 °F 21.4 °F 76% 30.19 in 10.0 mi NW 12.7 mph - N/A   Overcast
5:55 AM 27.1 °F 16.4 °F 19.8 °F 74% 30.19 in 10.0 mi NW 12.7 mph - N/A   Scattered Clouds
6:15 AM 26.4 °F 16.0 °F 19.4 °F 75% 30.20 in 10.0 mi NW 11.5 mph - N/A   Scattered Clouds
6:55 AM 25.5 °F 16.2 °F 19.4 °F 78% 30.20 in 10.0 mi NW 9.2 mph - N/A   Clear
7:15 AM 26.1 °F 16.8 °F 19.6 °F 76% 30.21 in 10.0 mi NW 9.2 mph - N/A   Clear
7:35 AM 26.4 °F 16.6 °F 19.4 °F 75% 30.21 in 10.0 mi NW 10.4 mph - N/A   Clear
7:55 AM 27.0 °F 16.7 °F 20.1 °F 75% 30.22 in 10.0 mi NW 11.5 mph - N/A   Clear
8:15 AM 27.3 °F 16.6 °F 18.5 °F 69% 30.22 in 10.0 mi NW 12.7 mph 18.4 mph N/A   Scattered Clouds
8:35 AM 27.5 °F 17.4 °F 18.5 °F 69% 30.22 in 10.0 mi NNW 11.5 mph - N/A   Mostly Cloudy
8:55 AM 28.8 °F 17.0 °F 19.2 °F 68% 30.22 in 10.0 mi WNW 16.1 mph - N/A   Mostly Cloudy
9:15 AM 27.5 °F 18.0 °F 18.7 °F 69% 30.23 in 10.0 mi NW 10.4 mph - N/A   Mostly Cloudy
9:35 AM 29.5 °F 19.3 °F 19.0 °F 65% 30.23 in 10.0 mi NW 12.7 mph - N/A   Scattered Clouds
12:15 PM 32.9 °F 25.3 °F 18.5 °F 55% 30.20 in 10.0 mi NW 9.2 mph 18.4 mph N/A   Clear
12:35 PM 33.4 °F 23.9 °F 18.1 °F 54% 30.19 in 10.0 mi WNW 13.8 mph 21.9 mph N/A   Scattered Clouds
12:55 PM 34.2 °F 26.8 °F 18.5 °F 53% 30.19 in 10.0 mi West 9.2 mph 18.4 mph N/A   Scattered Clouds
1:15 PM 34.5 °F 25.7 °F 17.8 °F 50% 30.19 in 10.0 mi WNW 12.7 mph 21.9 mph N/A   Clear
1:35 PM 34.7 °F 26.4 °F 16.7 °F 48% 30.18 in 10.0 mi WNW 11.5 mph 23.0 mph N/A   Clear
2:15 PM 36.0 °F 27.1 °F 17.8 °F 48% 30.18 in 10.0 mi NW 13.8 mph 21.9 mph N/A   Clear
2:35 PM 35.8 °F 26.1 °F 16.0 °F 45% 30.18 in 10.0 mi NW 16.1 mph 19.6 mph N/A   Clear
2:55 PM 35.4 °F 26.8 °F 16.2 °F 46% 30.18 in 10.0 mi NW 12.7 mph 17.3 mph N/A   Clear
3:15 PM 36.1 °F 26.5 °F 16.2 °F 44% 30.18 in 10.0 mi WNW 16.1 mph - N/A   Scattered Clouds
3:35 PM 35.6 °F 26.2 °F 14.2 °F 42% 30.18 in 10.0 mi WNW 15.0 mph 24.2 mph N/A   Scattered Clouds
3:55 PM 35.6 °F 27.5 °F 13.8 °F 41% 30.18 in 10.0 mi West 11.5 mph 19.6 mph N/A   Clear
4:15 PM 34.7 °F 25.9 °F 15.1 °F 45% 30.18 in 10.0 mi WNW 12.7 mph - N/A   Clear
4:35 PM 34.7 °F 26.4 °F 16.5 °F 48% 30.17 in 10.0 mi WNW 11.5 mph - N/A   Clear
4:55 PM 34.2 °F 24.8 °F 15.3 °F 46% 30.18 in 10.0 mi West 13.8 mph - N/A   Clear
5:15 PM 33.3 °F 24.6 °F 16.2 °F 50% 30.18 in 10.0 mi West 11.5 mph - N/A   Clear
5:35 PM 32.4 °F 24.6 °F 16.7 °F 53% 30.18 in 10.0 mi West 9.2 mph - N/A   Clear
5:55 PM 32.0 °F 24.8 °F 16.7 °F 53% 30.18 in 10.0 mi West 8.1 mph - N/A   Clear
6:15 PM 31.6 °F 26.0 °F 18.0 °F 57% 30.18 in 10.0 mi West 5.8 mph - N/A   Clear
6:55 PM 30.2 °F 25.4 °F 20.1 °F 66% 30.18 in 10.0 mi West 4.6 mph - N/A   Clear
7:15 PM 29.1 °F 24.1 °F 19.8 °F 68% 30.19 in 10.0 mi West 4.6 mph - N/A   Clear
7:35 PM 29.7 °F 24.7 °F 19.6 °F 66% 30.19 in 10.0 mi West 4.6 mph - N/A   Clear
7:55 PM 28.8 °F 25.0 °F 21.7 °F 75% 30.19 in 10.0 mi WSW 3.5 mph - N/A   Clear
8:15 PM 29.3 °F 25.6 °F 20.3 °F 69% 30.19 in 10.0 mi West 3.5 mph - N/A   Clear
8:35 PM 28.9 °F 25.2 °F 19.9 °F 69% 30.19 in 10.0 mi West 3.5 mph - N/A   Clear
8:55 PM 27.0 °F - 21.6 °F 80% 30.19 in 10.0 mi Calm Calm - N/A   Clear
9:15 PM 27.5 °F 23.6 °F 21.2 °F 77% 30.20 in 10.0 mi SW 3.5 mph - N/A   Clear
9:35 PM 27.9 °F 24.0 °F 21.0 °F 75% 30.20 in 10.0 mi WSW 3.5 mph - N/A   Clear
9:55 PM 27.5 °F 23.6 °F 21.9 °F 80% 30.20 in 10.0 mi West 3.5 mph - N/A   Clear
10:15 PM 25.5 °F - 20.3 °F 81% 30.20 in 10.0 mi Calm Calm - N/A   Clear
10:35 PM 26.2 °F - 21.6 °F 82% 30.20 in 10.0 mi Calm Calm - N/A   Clear
10:55 PM 26.4 °F 22.4 °F 22.8 °F 86% 30.19 in 10.0 mi WSW 3.5 mph - N/A   Clear
11:15 PM 25.7 °F 20.1 °F 22.6 °F 88% 30.19 in 10.0 mi SW 4.6 mph - N/A   Clear
11:35 PM 25.3 °F 21.1 °F 21.7 °F 86% 30.19 in 10.0 mi WSW 3.5 mph - N/A   Clear
11:55 PM 26.1 °F 20.5 °F 20.3 °F 79% 30.19 in 10.0 mi SW 4.6 mph - N/A   Clear